Time;durP1;ratioP1;P1;durP2;ratioP2;P2;SDS_P1;SDS_P2;PMS_P1;PMS_P2;Temp;Humidity;BMP_temperature;BMP_pressure;BME280_temperature;BME280_humidity;BME280_pressure;Samples;Min_cycle;Max_cycle;Signal;HPM_P1;HPM_P2
2023/07/11 00:01:16;;;;;;;3.83;3.07;;;;;;;19.14;100.00;100290.53;5010034;28;20248;-65
2023/07/11 00:03:42;;;;;;;6.40;3.20;;;;;;;19.10;100.00;100291.75;5016822;28;20187;-63
2023/07/11 00:06:11;;;;;;;3.97;2.77;;;;;;;18.99;100.00;100287.47;5009885;28;20486;-65
2023/07/11 00:08:36;;;;;;;7.10;3.00;;;;;;;18.98;100.00;100285.81;5010669;28;20261;-64
2023/07/11 00:11:03;;;;;;;6.10;3.03;;;;;;;19.02;100.00;100294.22;5008156;28;20237;-64
2023/07/11 00:13:29;;;;;;;6.53;3.37;;;;;;;19.00;100.00;100290.91;5018523;28;20210;-64
2023/07/11 00:16:01;;;;;;;3.77;2.83;;;;;;;18.93;100.00;100281.97;5009399;28;20548;-66
2023/07/11 00:18:28;;;;;;;4.73;3.43;;;;;;;18.96;100.00;100286.91;5012907;28;20269;-65
2023/07/11 00:20:53;;;;;;;4.37;3.27;;;;;;;18.96;100.00;100285.13;5000307;28;20666;-65
2023/07/11 00:23:18;;;;;;;4.83;3.17;;;;;;;19.00;100.00;100280.47;4991759;28;20279;-65
2023/07/11 00:25:43;;;;;;;4.77;3.40;;;;;;;18.99;100.00;100278.81;4992714;28;20258;-64
2023/07/11 00:28:09;;;;;;;5.07;2.90;;;;;;;18.94;100.00;100281.00;4991849;28;20289;-64
2023/07/11 00:30:34;;;;;;;4.13;3.27;;;;;;;18.91;100.00;100273.47;4987532;28;20291;-64
2023/07/11 00:32:59;;;;;;;4.33;3.07;;;;;;;18.90;100.00;100277.81;5020030;28;20208;-65
2023/07/11 00:35:24;;;;;;;6.60;3.43;;;;;;;18.87;100.00;100276.28;5014588;28;20181;-65
2023/07/11 00:37:50;;;;;;;4.17;3.07;;;;;;;18.84;100.00;100273.13;5004825;28;20237;-65
2023/07/11 00:40:15;;;;;;;4.03;3.10;;;;;;;18.85;100.00;100283.44;4993574;28;20595;-64
2023/07/11 00:42:41;;;;;;;7.77;3.40;;;;;;;18.86;100.00;100279.03;5012854;28;20179;-65
2023/07/11 00:45:45;;;;;;;5.47;3.07;;;;;;;18.70;100.00;100272.56;5013841;28;20623;-65
2023/07/11 00:48:11;;;;;;;8.17;3.30;;;;;;;18.70;100.00;100264.75;5013502;28;20177;-65
2023/07/11 00:50:37;;;;;;;5.97;3.10;;;;;;;18.67;100.00;100272.00;5006241;28;20704;-65
2023/07/11 00:53:02;;;;;;;5.03;3.50;;;;;;;18.64;100.00;100269.66;5018712;28;20203;-65
2023/07/11 00:55:28;;;;;;;9.23;3.87;;;;;;;18.59;100.00;100267.44;5014084;28;20189;-64
2023/07/11 00:57:53;;;;;;;10.13;2.97;;;;;;;18.57;100.00;100265.91;5013405;28;20615;-64
2023/07/11 01:00:18;;;;;;;5.17;3.27;;;;;;;18.62;100.00;100261.97;5004484;28;20221;-64
2023/07/11 01:02:44;;;;;;;5.77;3.67;;;;;;;18.48;100.00;100255.34;5023500;28;20186;-64
2023/07/11 01:05:09;;;;;;;5.73;3.33;;;;;;;18.47;100.00;100258.91;5013537;28;20557;-64
2023/07/11 01:07:36;;;;;;;6.50;3.40;;;;;;;18.49;100.00;100256.16;5012650;28;20186;-65
2023/07/11 01:10:04;;;;;;;8.87;3.80;;;;;;;18.54;100.00;100254.81;5011786;28;20237;-66
2023/07/11 01:12:29;;;;;;;6.23;3.47;;;;;;;18.61;100.00;100254.28;5026409;28;20765;-64
2023/07/11 01:14:55;;;;;;;9.00;3.97;;;;;;;18.62;100.00;100256.75;5013247;28;20191;-65
2023/07/11 01:17:27;;;;;;;8.63;3.47;;;;;;;18.67;100.00;100264.19;5012710;28;20547;-64
2023/07/11 01:19:54;;;;;;;6.97;4.17;;;;;;;18.69;100.00;100257.88;5012566;28;20229;-64
2023/07/11 01:22:19;;;;;;;5.10;3.77;;;;;;;18.70;100.00;100258.69;5001225;28;20233;-64
2023/07/11 01:24:45;;;;;;;5.53;3.37;;;;;;;18.65;100.00;100255.66;5012581;28;20191;-65
2023/07/11 01:27:10;;;;;;;9.83;3.23;;;;;;;18.63;100.00;100254.97;5011158;28;20228;-64
2023/07/11 01:29:36;;;;;;;7.80;3.63;;;;;;;18.57;100.00;100255.50;5013669;28;20261;-64
2023/07/11 01:32:01;;;;;;;5.07;3.40;;;;;;;18.52;100.00;100254.13;5019133;28;20273;-63
2023/07/11 01:34:26;;;;;;;4.73;4.00;;;;;;;18.46;100.00;100253.81;5014018;28;20194;-63
2023/07/11 01:36:52;;;;;;;5.80;3.50;;;;;;;18.46;100.00;100253.81;5012147;28;20206;-64
2023/07/11 01:39:17;;;;;;;6.47;3.20;;;;;;;18.46;100.00;100253.81;4994776;28;20265;-64
2023/07/11 01:41:43;;;;;;;6.57;3.83;;;;;;;18.35;100.00;100250.34;4997218;28;20226;-64
2023/07/11 01:44:10;;;;;;;7.20;3.90;;;;;;;18.42;100.00;100248.06;4996561;28;20191;-64
2023/07/11 01:46:35;;;;;;;8.27;3.30;;;;;;;18.37;100.00;100251.03;4994163;28;20187;-64
2023/07/11 01:49:02;;;;;;;4.80;3.33;;;;;;;18.39;100.00;100243.94;4994606;28;20186;-64
2023/07/11 01:51:27;;;;;;;8.27;3.73;;;;;;;18.33;100.00;100239.25;4985916;28;20662;-64
2023/07/11 01:53:52;;;;;;;6.83;3.40;;;;;;;18.23;100.00;100240.97;5011251;28;20199;-64
2023/07/11 01:56:18;;;;;;;9.30;3.33;;;;;;;18.19;100.00;100236.97;5011127;28;20560;-64
2023/07/11 01:58:43;;;;;;;8.03;3.47;;;;;;;18.17;100.00;100229.31;5013531;28;20187;-67
2023/07/11 02:01:08;;;;;;;7.67;3.53;;;;;;;18.13;100.00;100233.09;5009532;28;20225;-64
2023/07/11 02:03:33;;;;;;;5.60;3.23;;;;;;;18.07;100.00;100228.41;5020598;28;20670;-63
2023/07/11 02:05:59;;;;;;;5.70;3.30;;;;;;;17.91;100.00;100229.69;5012569;28;20191;-63
2023/07/11 02:08:25;;;;;;;3.73;3.30;;;;;;;17.86;100.00;100225.81;5012072;28;20181;-63
2023/07/11 02:10:50;;;;;;;5.53;3.53;;;;;;;17.89;100.00;100225.56;5004652;28;20224;-64
2023/07/11 02:13:15;;;;;;;4.20;3.30;;;;;;;17.95;100.00;100230.28;5011835;28;20206;-64
2023/07/11 02:15:41;;;;;;;4.80;3.83;;;;;;;17.94;100.00;100233.00;5012744;28;20271;-64
2023/07/11 02:18:07;;;;;;;8.47;3.73;;;;;;;17.68;100.00;100234.19;5013447;28;20190;-63
2023/07/11 02:20:32;;;;;;;4.40;3.90;;;;;;;17.62;100.00;100229.50;5005743;28;20627;-63
2023/07/11 02:22:59;;;;;;;3.20;2.63;;;;;;;17.71;100.00;100228.75;5024177;28;20187;-63
2023/07/11 02:25:25;;;;;;;5.47;3.67;;;;;;;17.75;100.00;100232.75;5009711;28;20182;-63
2023/07/11 02:27:50;;;;;;;4.70;3.03;;;;;;;17.64;100.00;100225.00;5012754;28;20709;-63
2023/07/11 02:30:16;;;;;;;4.17;3.40;;;;;;;17.63;100.00;100220.75;5003996;28;20198;-63
2023/07/11 02:32:42;;;;;;;6.33;3.10;;;;;;;17.72;100.00;100217.41;5001040;28;20211;-63
2023/07/11 02:35:08;;;;;;;3.80;3.37;;;;;;;17.81;100.00;100221.00;5010810;28;20273;-63
2023/07/11 02:37:33;;;;;;;7.37;4.00;;;;;;;17.81;100.00;100218.41;5005618;28;20203;-64
2023/07/11 02:39:58;;;;;;;6.63;3.63;;;;;;;17.64;100.00;100217.19;5008550;28;20233;-64
2023/07/11 02:42:23;;;;;;;5.07;3.37;;;;;;;17.68;100.00;100218.59;5006696;28;21008;-64
2023/07/11 02:44:49;;;;;;;6.33;3.70;;;;;;;17.73;100.00;100213.81;5009862;28;20178;-64
2023/07/11 02:47:14;;;;;;;4.93;3.70;;;;;;;17.75;100.00;100214.53;4994097;28;20184;-64
2023/07/11 02:49:40;;;;;;;4.97;3.60;;;;;;;17.77;100.00;100210.97;4993666;28;20519;-64
2023/07/11 02:52:07;;;;;;;4.13;2.90;;;;;;;17.70;100.00;100211.50;4998271;28;20261;-64
2023/07/11 02:54:32;;;;;;;12.13;3.80;;;;;;;17.71;100.00;100209.69;4991156;28;20183;-64
2023/07/11 02:56:57;;;;;;;3.70;3.40;;;;;;;17.67;100.00;100214.31;4993335;28;20242;-64
2023/07/11 02:59:23;;;;;;;6.23;3.40;;;;;;;17.69;100.00;100209.03;4992869;28;20530;-64
2023/07/11 03:01:48;;;;;;;8.43;4.00;;;;;;;17.76;100.00;100199.72;4987426;28;20226;-64
2023/07/11 03:04:13;;;;;;;7.80;3.70;;;;;;;17.73;100.00;100200.81;4995859;28;20208;-64
2023/07/11 03:06:39;;;;;;;5.87;3.43;;;;;;;17.65;100.00;100207.59;4994081;28;20714;-64
2023/07/11 03:09:04;;;;;;;5.10;3.60;;;;;;;17.52;100.00;100200.81;4994769;28;20194;-64
2023/07/11 03:11:30;;;;;;;4.17;3.70;;;;;;;17.51;100.00;100199.16;4994332;28;20234;-65
2023/07/11 03:13:55;;;;;;;6.00;3.30;;;;;;;17.54;100.00;100190.31;4996787;28;20667;-65
2023/07/11 03:16:20;;;;;;;5.13;3.77;;;;;;;17.53;100.00;100189.47;4992770;28;20262;-64
2023/07/11 03:18:46;;;;;;;6.37;3.70;;;;;;;17.56;100.00;100189.22;4998878;28;20269;-64
2023/07/11 03:21:11;;;;;;;6.43;3.70;;;;;;;17.57;100.00;100190.03;4991759;28;20230;-64
2023/07/11 03:23:36;;;;;;;4.90;3.53;;;;;;;17.56;100.00;100186.63;4998399;28;20195;-64
2023/07/11 03:26:02;;;;;;;9.50;4.37;;;;;;;17.57;100.00;100183.03;4992314;28;20654;-64
2023/07/11 03:28:27;;;;;;;6.57;3.77;;;;;;;17.54;100.00;100187.69;4990917;28;20227;-63
2023/07/11 03:30:53;;;;;;;6.30;3.33;;;;;;;17.51;100.00;100183.56;4968988;28;20234;-62
2023/07/11 03:33:18;;;;;;;6.60;3.53;;;;;;;17.52;100.00;100182.59;4993695;28;20602;-64
2023/07/11 03:35:48;;;;;;;4.23;3.47;;;;;;;17.46;100.00;100185.72;5011557;28;20186;-63
2023/07/11 03:38:13;;;;;;;4.03;3.37;;;;;;;17.42;100.00;100184.31;5001124;28;20198;-63
2023/07/11 03:40:39;;;;;;;3.50;3.20;;;;;;;17.48;100.00;100178.63;5006446;28;20240;-63
2023/07/11 03:43:04;;;;;;;5.00;3.90;;;;;;;17.45;100.00;100180.66;5009850;28;20264;-63
2023/07/11 03:45:29;;;;;;;6.63;3.40;;;;;;;17.36;100.00;100183.03;5011462;28;20189;-63
2023/07/11 03:47:54;;;;;;;7.03;3.57;;;;;;;17.20;100.00;100175.66;5011368;28;20183;-65
2023/07/11 03:50:20;;;;;;;3.90;3.23;;;;;;;17.21;100.00;100166.91;5002170;28;20724;-65
2023/07/11 03:52:46;;;;;;;4.67;3.80;;;;;;;17.27;100.00;100170.81;5023355;28;20203;-63
2023/07/11 03:55:11;;;;;;;5.90;3.37;;;;;;;17.24;100.00;100166.69;5009649;28;20185;-65
2023/07/11 03:57:36;;;;;;;8.23;3.60;;;;;;;17.16;100.00;100170.88;5009473;28;20179;-64
2023/07/11 04:00:03;;;;;;;6.47;3.57;;;;;;;17.18;100.00;100171.53;5010562;28;20229;-65
2023/07/11 04:02:28;;;;;;;3.87;3.40;;;;;;;17.27;100.00;100170.81;5006142;28;20230;-64
2023/07/11 04:04:53;;;;;;;4.37;3.70;;;;;;;17.33;100.00;100174.66;5009363;28;20215;-64
2023/07/11 04:07:19;;;;;;;4.67;3.43;;;;;;;17.36;100.00;100161.44;5008297;28;20186;-64
2023/07/11 04:09:44;;;;;;;5.33;3.30;;;;;;;17.47;100.00;100169.16;5010859;28;20186;-64
2023/07/11 04:12:10;;;;;;;4.43;4.03;;;;;;;17.57;100.00;100166.63;5015542;28;20230;-64
2023/07/11 04:14:36;;;;;;;3.60;3.27;;;;;;;17.64;100.00;100162.56;5010060;28;20709;-57
2023/07/11 04:17:02;;;;;;;4.40;3.37;;;;;;;17.68;100.00;100160.53;5007212;28;20525;-57
2023/07/11 04:19:27;;;;;;;4.50;3.37;;;;;;;17.79;100.00;100164.84;5008464;28;20194;-56
2023/07/11 04:21:52;;;;;;;6.27;3.80;;;;;;;17.96;100.00;100173.84;4996089;28;20254;-57
2023/07/11 04:24:17;;;;;;;4.03;3.73;;;;;;;18.01;100.00;100163.88;4984381;28;20183;-57
2023/07/11 04:26:43;;;;;;;3.60;3.30;;;;;;;18.04;100.00;100168.81;4993406;28;20180;-56
2023/07/11 04:29:08;;;;;;;4.57;3.73;;;;;;;18.30;100.00;100169.19;5003097;28;20176;-56
2023/07/11 04:31:33;;;;;;;3.60;2.90;;;;;;;18.32;100.00;100166.44;4993383;28;20227;-57
2023/07/11 04:33:59;;;;;;;8.93;3.57;;;;;;;18.55;100.00;100170.47;5003576;28;20852;-57
2023/07/11 04:36:24;;;;;;;5.07;3.50;;;;;;;18.68;100.00;100172.00;5010614;28;20209;-57
2023/07/11 04:38:50;;;;;;;6.53;3.50;;;;;;;18.64;100.00;100165.44;4992313;28;20202;-56
2023/07/11 04:41:15;;;;;;;7.27;3.87;;;;;;;18.90;100.00;100177.97;4990684;28;20320;-56
2023/07/11 04:43:40;;;;;;;4.73;3.90;;;;;;;18.87;100.00;100164.22;4997571;28;20318;-56
2023/07/11 04:46:07;;;;;;;8.70;3.93;;;;;;;18.83;100.00;100177.69;4991420;28;20215;-56
2023/07/11 04:48:32;;;;;;;5.43;3.77;;;;;;;19.00;100.00;100171.84;4991518;28;20180;-56
2023/07/11 04:51:00;;;;;;;4.10;3.63;;;;;;;19.09;100.00;100166.72;4989097;28;20226;-55
2023/07/11 04:53:26;;;;;;;6.17;3.90;;;;;;;19.39;100.00;100170.97;4999662;28;20203;-55
2023/07/11 04:56:00;;;;;;;3.30;3.00;;;;;;;19.60;100.00;100167.38;4992149;28;20282;-56
2023/07/11 04:58:28;;;;;;;6.03;3.50;;;;;;;19.78;100.00;100167.47;4991619;28;20234;-56
2023/07/11 05:01:00;;;;;;;4.83;3.40;;;;;;;19.83;100.00;100170.50;4987968;28;20566;-56
2023/07/11 05:03:25;;;;;;;3.63;3.33;;;;;;;19.81;100.00;100161.97;5000309;28;20669;-56
2023/07/11 05:05:50;;;;;;;4.47;3.40;;;;;;;19.91;100.00;100167.16;4994618;28;20188;-57
2023/07/11 05:08:16;;;;;;;4.93;3.20;;;;;;;20.20;100.00;100166.25;4995000;28;20180;-56
2023/07/11 05:10:52;;;;;;;5.00;3.37;;;;;;;20.44;100.00;100161.31;4989872;28;20233;-57
2023/07/11 05:13:18;;;;;;;7.47;2.90;;;;;;;20.62;100.00;100153.47;5003928;28;20209;-57
2023/07/11 05:15:43;;;;;;;6.27;3.60;;;;;;;20.96;100.00;100159.88;4995073;28;20262;-58
2023/07/11 05:18:08;;;;;;;6.33;3.77;;;;;;;21.09;100.00;100162.13;4995310;28;20697;-56
2023/07/11 05:20:33;;;;;;;4.83;3.53;;;;;;;21.37;100.00;100149.75;4993736;28;20771;-56
2023/07/11 05:22:59;;;;;;;5.57;3.47;;;;;;;21.42;100.00;100154.50;5013908;28;20187;-56
2023/07/11 05:25:24;;;;;;;5.50;3.40;;;;;;;21.53;100.00;100148.19;5007178;28;20191;-56
2023/07/11 05:27:49;;;;;;;3.90;3.13;;;;;;;21.55;100.00;100146.25;5005894;28;20238;-57
2023/07/11 05:30:14;;;;;;;7.87;3.20;;;;;;;21.85;100.00;100147.59;5005030;28;20233;-57
2023/07/11 05:32:40;;;;;;;4.33;3.07;;;;;;;22.23;100.00;100140.22;5027878;28;20202;-57
2023/07/11 05:35:05;;;;;;;7.13;3.23;;;;;;;22.30;100.00;100136.97;5013561;28;20258;-57
2023/07/11 05:37:31;;;;;;;5.47;3.03;;;;;;;22.30;100.00;100140.41;5006330;28;20242;-57
2023/07/11 05:39:56;;;;;;;5.70;3.60;;;;;;;22.43;100.00;100134.75;4994777;28;20191;-56
2023/07/11 05:42:21;;;;;;;7.30;3.47;;;;;;;22.70;100.00;100143.31;4999205;28;20259;-57
2023/07/11 05:44:46;;;;;;;5.93;3.13;;;;;;;22.74;100.00;100144.63;4994200;28;20697;-56
2023/07/11 05:47:12;;;;;;;4.20;3.40;;;;;;;22.93;100.00;100140.88;5007530;28;20186;-56
2023/07/11 05:49:38;;;;;;;4.33;2.90;;;;;;;23.08;98.19;100143.66;4994698;28;20278;-57
2023/07/11 05:52:04;;;;;;;8.53;3.90;;;;;;;23.24;96.60;100134.97;4999553;28;20258;-57
2023/07/11 05:54:29;;;;;;;6.80;3.27;;;;;;;23.16;96.91;100135.81;4994236;28;20655;-56
2023/07/11 05:56:54;;;;;;;5.23;3.70;;;;;;;23.26;97.66;100132.19;4995175;28;20734;-56
2023/07/11 05:59:19;;;;;;;5.47;3.23;;;;;;;23.35;96.18;100124.13;4994678;28;20195;-57
2023/07/11 06:01:45;;;;;;;5.30;3.20;;;;;;;23.46;95.74;100130.03;4997135;28;20230;-56
2023/07/11 06:04:13;;;;;;;6.50;3.30;;;;;;;23.50;95.12;100124.25;4996272;28;20644;-56
2023/07/11 06:06:43;;;;;;;6.03;3.63;;;;;;;23.68;95.62;100118.81;4994298;28;20266;-56
2023/07/11 06:09:11;;;;;;;4.37;3.70;;;;;;;24.22;92.08;100125.19;4994289;28;20188;-56
2023/07/11 06:11:36;;;;;;;7.53;3.87;;;;;;;24.30;91.21;100114.63;4996080;28;20230;-56
2023/07/11 06:14:01;;;;;;;5.37;3.83;;;;;;;24.27;90.67;100109.72;4996694;28;20671;-57
2023/07/11 06:16:27;;;;;;;6.57;4.27;;;;;;;24.09;91.71;100115.25;4992340;28;20199;-56
2023/07/11 06:18:52;;;;;;;9.73;3.50;;;;;;;23.98;93.20;100111.19;4994250;28;20190;-56
2023/07/11 06:21:18;;;;;;;9.70;3.77;;;;;;;24.74;89.27;100110.56;4994003;28;20249;-56
2023/07/11 06:23:44;;;;;;;7.10;3.80;;;;;;;25.21;85.66;100106.06;4994088;28;20195;-61
2023/07/11 06:26:09;;;;;;;6.83;3.87;;;;;;;25.96;80.01;100111.34;4994323;28;20183;-62
2023/07/11 06:28:35;;;;;;;10.98;3.90;;;;;;;26.28;77.77;100108.50;5009385;28;20222;-64
2023/07/11 06:31:01;;;;;;;8.80;4.15;;;;;;;27.21;73.07;100104.06;5009730;28;20339;-65
2023/07/11 06:33:27;;;;;;;7.50;4.10;;;;;;;27.03;74.64;100109.00;5018055;28;20214;-64
2023/07/11 06:35:53;;;;;;;7.03;4.60;;;;;;;27.61;69.18;100108.78;5011242;28;20183;-65
2023/07/11 06:38:19;;;;;;;10.82;4.43;;;;;;;27.11;73.15;100111.47;5001497;28;20229;-63
2023/07/11 06:40:49;;;;;;;8.15;4.20;;;;;;;27.18;68.98;100116.81;5007037;28;20765;-64
2023/07/11 06:43:16;;;;;;;5.68;4.30;;;;;;;26.24;78.50;100098.31;5016106;28;20310;-63
2023/07/11 06:45:41;;;;;;;8.52;4.47;;;;;;;27.79;69.46;100097.66;4999398;28;20262;-63
2023/07/11 06:48:06;;;;;;;5.82;4.10;;;;;;;28.39;64.63;100102.31;4993423;28;20405;-64
2023/07/11 06:50:32;;;;;;;7.68;4.45;;;;;;;29.93;54.00;100096.88;4992934;28;20607;-63
2023/07/11 06:52:57;;;;;;;709.50;78.25;;;;;;;29.19;58.09;100092.78;4992341;28;20203;-64
2023/07/11 06:55:22;;;;;;;7.03;4.00;;;;;;;28.61;61.99;100081.81;4992893;28;20190;-64
2023/07/11 06:57:48;;;;;;;6.50;4.90;;;;;;;29.78;56.94;100083.03;4993326;28;20192;-62
2023/07/11 07:00:13;;;;;;;5.75;4.43;;;;;;;30.71;49.79;100088.84;4974440;28;20175;-63
2023/07/11 07:02:40;;;;;;;7.70;4.97;;;;;;;30.48;49.33;100092.03;5017563;28;20191;-63
2023/07/11 07:05:05;;;;;;;485.83;116.38;;;;;;;31.01;49.24;100093.47;4997740;28;20195;-64
2023/07/11 07:07:31;;;;;;;7.38;4.32;;;;;;;30.76;49.33;100094.31;5002542;28;20183;-64
2023/07/11 07:09:57;;;;;;;938.58;304.10;;;;;;;31.59;46.58;100091.47;4999564;28;20180;-64
2023/07/11 07:12:23;;;;;;;13.43;4.78;;;;;;;32.21;43.31;100085.19;4993483;28;20235;-63
2023/07/11 07:14:49;;;;;;;8.07;4.20;;;;;;;33.16;41.48;100091.41;4990125;28;20184;-63
2023/07/11 07:17:14;;;;;;;6.40;3.75;;;;;;;33.74;39.03;100092.31;5008403;28;20217;-64
2023/07/11 07:19:39;;;;;;;9.88;4.10;;;;;;;34.66;36.07;100096.84;4998258;28;20191;-64
2023/07/11 07:22:04;;;;;;;11.27;4.80;;;;;;;34.21;36.52;100087.81;5008262;28;20226;-63
2023/07/11 07:24:30;;;;;;;7.90;3.80;;;;;;;34.86;35.72;100086.50;4999698;28;20195;-64
2023/07/11 07:26:55;;;;;;;50.80;6.15;;;;;;;34.81;35.28;100097.06;5002907;28;20681;-62
2023/07/11 07:29:21;;;;;;;8.68;4.07;;;;;;;31.53;41.74;100093.97;5002249;28;20183;-63
2023/07/11 07:31:47;;;;;;;6.15;4.05;;;;;;;33.57;38.74;100084.25;4961759;28;20246;-63
2023/07/11 07:34:12;;;;;;;9.93;4.28;;;;;;;33.50;39.08;100080.91;4991474;28;20666;-63
2023/07/11 07:36:37;;;;;;;11.63;4.55;;;;;;;35.58;34.60;100085.81;4992275;28;20249;-64
2023/07/11 07:39:03;;;;;;;22.40;5.40;;;;;;;36.48;32.47;100079.97;4983010;28;20179;-63
2023/07/11 07:41:29;;;;;;;9.60;4.55;;;;;;;36.56;31.16;100076.81;4984047;28;20270;-63
2023/07/11 07:43:54;;;;;;;14.52;3.90;;;;;;;36.01;31.78;100084.94;5006818;28;20650;-63
2023/07/11 07:46:19;;;;;;;9.20;4.78;;;;;;;36.43;31.48;100069.22;5009059;28;20193;-63
2023/07/11 07:48:45;;;;;;;6.03;4.00;;;;;;;35.74;32.27;100076.88;5010583;28;20197;-65
2023/07/11 07:51:13;;;;;;;9.48;4.53;;;;;;;34.75;33.52;100064.13;5007351;28;20551;-64
2023/07/11 07:53:39;;;;;;;8.98;4.25;;;;;;;36.03;32.85;100064.09;5010253;28;20214;-63
2023/07/11 07:56:07;;;;;;;35.05;5.53;;;;;;;37.23;30.97;100061.13;5010322;28;20187;-63
2023/07/11 07:58:33;;;;;;;17.83;5.28;;;;;;;37.89;28.71;100065.06;5005220;28;20672;-63
2023/07/11 08:00:59;;;;;;;86.97;7.40;;;;;;;38.51;28.43;100062.38;4999075;28;20245;-63
2023/07/11 08:03:24;;;;;;;168.80;11.35;;;;;;;38.37;28.67;100056.78;5010590;28;20244;-63
2023/07/11 08:05:52;;;;;;;20.17;5.53;;;;;;;37.01;29.45;100055.13;5004803;28;20962;-63
2023/07/11 08:08:17;;;;;;;6.60;3.97;;;;;;;36.84;30.37;100053.41;5004572;28;20182;-62
2023/07/11 08:10:43;;;;;;;12.95;3.97;;;;;;;37.81;28.53;100054.84;4996055;28;20744;-63
2023/07/11 08:13:08;;;;;;;8.48;4.03;;;;;;;38.07;28.34;100050.31;4999558;28;20198;-62
2023/07/11 08:15:34;;;;;;;33.05;5.13;;;;;;;37.21;28.79;100046.34;5006505;28;20186;-62
2023/07/11 08:17:59;;;;;;;8.50;3.80;;;;;;;37.85;28.27;100041.72;5009681;28;20543;-62
2023/07/11 08:20:24;;;;;;;25.10;4.85;;;;;;;37.95;28.64;100034.47;4999927;28;20237;-63
2023/07/11 08:22:50;;;;;;;17.20;4.60;;;;;;;38.07;28.51;100041.44;5014055;28;20646;-63
2023/07/11 08:25:15;;;;;;;16.08;6.00;;;;;;;39.05;26.94;100036.72;4995302;28;20768;-64
2023/07/11 08:27:40;;;;;;;57.88;6.80;;;;;;;39.77;25.89;100034.72;5005300;28;20301;-63
2023/07/11 08:30:06;;;;;;;7.30;3.83;;;;;;;39.65;24.72;100030.47;5000300;28;20175;-67
2023/07/11 08:32:31;;;;;;;18.50;4.50;;;;;;;39.36;25.59;100027.69;5009584;28;20581;-65
2023/07/11 08:34:57;;;;;;;9.80;4.68;;;;;;;36.80;28.46;100012.13;4996644;28;20275;-62
2023/07/11 08:37:22;;;;;;;9.38;3.80;;;;;;;37.38;27.39;100005.94;4992064;28;20202;-63
2023/07/11 08:39:48;;;;;;;14.65;4.45;;;;;;;38.03;26.70;100008.16;4994662;28;20274;-63
2023/07/11 08:42:40;;;;;;;15.45;4.45;;;;;;;38.31;26.91;100014.09;5000840;28;20642;-64
2023/07/11 08:45:23;;;;;;;13.95;4.43;;;;;;;38.52;26.61;100012.94;4993951;28;20199;-65
2023/07/11 08:48:13;;;;;;;9.32;4.43;;;;;;;39.79;24.25;100008.31;5005868;28;20603;-64
2023/07/11 08:50:47;;;;;;;13.35;4.43;;;;;;;39.52;23.77;100010.38;4993966;28;20261;-63
2023/07/11 08:53:18;;;;;;;13.43;4.78;;;;;;;39.79;24.98;99998.34;5000826;28;20208;-62
2023/07/11 08:55:49;;;;;;;8.77;3.75;;;;;;;40.05;24.38;99998.13;5010327;28;20241;-62
2023/07/11 08:58:22;;;;;;;7.53;4.20;;;;;;;40.04;25.09;99999.22;5014340;28;20197;-63
2023/07/11 09:00:50;;;;;;;10.40;4.03;;;;;;;39.02;24.72;99994.22;4990416;28;20752;-64
2023/07/11 09:03:30;;;;;;;8.20;3.30;;;;;;;39.97;24.19;99991.47;4996576;28;20190;-65
2023/07/11 09:06:07;;;;;;;8.32;4.00;;;;;;;40.81;22.48;99989.53;4999017;28;20187;-65
2023/07/11 09:08:42;;;;;;;8.00;3.97;;;;;;;41.58;21.98;99995.78;4996253;28;20195;-64
2023/07/11 09:11:14;;;;;;;5.53;3.40;;;;;;;40.62;23.24;99984.91;4993850;28;20308;-64
2023/07/11 09:13:51;;;;;;;6.22;3.60;;;;;;;41.34;22.12;99987.78;4991036;28;20203;-63
2023/07/11 09:16:31;;;;;;;6.43;3.67;;;;;;;40.69;22.33;99976.47;4993050;28;20210;-65
2023/07/11 09:19:35;;;;;;;3.95;3.55;;;;;;;41.90;21.30;99976.09;4997386;28;20185;-63
2023/07/11 09:22:27;;;;;;;9.05;3.58;;;;;;;40.70;22.44;99970.00;5002859;28;20218;-65
2023/07/11 09:25:03;;;;;;;5.20;3.72;;;;;;;40.64;21.50;99963.06;5013660;28;20262;-64
2023/07/11 09:27:37;;;;;;;7.70;3.95;;;;;;;40.20;22.05;99961.41;5003773;28;20218;-63
2023/07/11 09:30:12;;;;;;;6.47;4.10;;;;;;;41.03;22.51;99955.84;4999914;28;20194;-63
2023/07/11 09:32:37;;;;;;;8.07;4.00;;;;;;;40.94;21.96;99961.84;5018856;28;20218;-63
2023/07/11 09:35:37;;;;;;;5.18;3.28;;;;;;;41.39;22.53;99958.78;5012983;28;20177;-63
2023/07/11 09:38:10;;;;;;;5.47;3.35;;;;;;;39.54;23.52;99949.00;4955736;28;20333;-63
2023/07/11 09:40:42;;;;;;;6.85;3.75;;;;;;;38.83;23.91;99942.97;4929820;29;20309;-64
2023/07/11 09:43:09;;;;;;;4.22;3.83;;;;;;;39.47;23.25;99937.78;4957314;28;20219;-63
2023/07/11 09:45:37;;;;;;;5.15;4.07;;;;;;;39.62;23.52;99936.84;4933820;29;20264;-63
2023/07/11 09:48:08;;;;;;;7.00;3.63;;;;;;;37.72;26.14;99924.94;4955994;28;20291;-63
2023/07/11 09:51:00;;;;;;;5.53;3.67;;;;;;;38.82;24.26;99930.63;4942469;28;20264;-64
2023/07/11 09:53:28;;;;;;;7.40;3.97;;;;;;;39.13;24.10;99922.38;4944224;29;20252;-66
2023/07/11 09:56:02;;;;;;;6.60;3.88;;;;;;;39.95;23.54;99925.53;4942875;28;20192;-64
2023/07/11 09:58:31;;;;;;;5.55;3.45;;;;;;;38.10;25.12;99915.50;4955317;28;20192;-65
2023/07/11 10:01:00;;;;;;;7.70;4.10;;;;;;;40.39;24.08;99921.03;4943019;28;20259;-64
2023/07/11 10:03:28;;;;;;;7.00;3.60;;;;;;;41.02;24.17;99928.06;4934050;29;20193;-64
2023/07/11 10:05:54;;;;;;;5.15;3.83;;;;;;;39.71;24.23;99915.53;4964145;28;20188;-65
2023/07/11 10:08:23;;;;;;;8.45;3.88;;;;;;;41.30;23.39;99907.38;4958815;28;20208;-64
2023/07/11 10:10:53;;;;;;;8.15;4.03;;;;;;;41.44;22.88;99915.59;4922660;29;20234;-62
2023/07/11 10:13:20;;;;;;;9.23;3.95;;;;;;;42.65;21.77;99911.16;4957282;28;20220;-61
2023/07/11 10:15:52;;;;;;;6.28;3.97;;;;;;;39.68;24.29;99898.06;4995603;28;20207;-62
2023/07/11 10:18:27;;;;;;;6.47;3.42;;;;;;;40.70;25.64;99896.41;5002452;28;20222;-63
2023/07/11 10:20:56;;;;;;;3.90;3.45;;;;;;;42.19;21.96;99901.25;4998085;28;20544;-65
2023/07/11 10:23:24;;;;;;;9.02;4.22;;;;;;;41.09;23.57;99906.91;5013116;28;20198;-65
2023/07/11 10:26:04;;;;;;;7.45;4.05;;;;;;;41.63;22.22;99893.09;5005405;28;20646;-63
2023/07/11 10:28:33;;;;;;;5.90;4.05;;;;;;;41.05;23.31;99889.72;5010495;28;20228;-64
2023/07/11 10:31:09;;;;;;;8.70;4.50;;;;;;;40.47;24.20;99890.75;4973031;28;20237;-63
2023/07/11 10:33:43;;;;;;;4.57;3.75;;;;;;;39.57;24.87;99883.06;5015194;28;20250;-64
2023/07/11 10:36:21;;;;;;;9.00;4.10;;;;;;;40.33;24.05;99883.38;5008151;28;20237;-63
2023/07/11 10:38:58;;;;;;;8.65;4.00;;;;;;;40.72;22.83;99878.06;5001657;28;20206;-63
2023/07/11 10:41:32;;;;;;;4.18;3.78;;;;;;;41.79;22.64;99877.44;5001001;28;20309;-62
2023/07/11 10:43:59;;;;;;;6.53;4.07;;;;;;;41.18;23.00;99873.88;5009228;28;20183;-70
2023/07/11 10:46:41;;;;;;;5.05;4.20;;;;;;;40.69;24.02;99874.06;5007221;28;20266;-62
2023/07/11 10:49:14;;;;;;;8.48;3.72;;;;;;;39.99;25.56;99867.31;5008693;28;20642;-64
2023/07/11 10:51:43;;;;;;;6.55;3.88;;;;;;;39.49;26.87;99865.63;4983652;28;20226;-62
2023/07/11 10:54:17;;;;;;;7.63;4.43;;;;;;;37.90;27.77;99851.16;5007312;28;20219;-62
2023/07/11 10:56:48;;;;;;;7.13;4.05;;;;;;;37.50;29.14;99844.72;5011595;28;20190;-63
2023/07/11 10:59:18;;;;;;;5.15;4.38;;;;;;;36.43;29.52;99838.91;5008845;28;20187;-64
2023/07/11 11:02:07;;;;;;;10.45;4.13;;;;;;;35.04;32.16;99833.38;4992486;28;20237;-63
2023/07/11 11:04:55;;;;;;;8.38;5.07;;;;;;;34.84;34.15;99821.41;5000963;28;20245;-62
2023/07/11 11:07:23;;;;;;;7.93;4.75;;;;;;;34.87;34.62;99820.16;4999181;28;20307;-62
2023/07/11 11:10:04;;;;;;;4.47;3.80;;;;;;;34.36;33.49;99820.34;5003295;28;20183;-64
2023/07/11 11:12:43;;;;;;;10.15;4.90;;;;;;;33.92;35.99;99808.53;4992201;28;20275;-64
2023/07/11 11:15:32;;;;;;;5.07;4.57;;;;;;;34.44;34.48;99806.56;4987789;28;20509;-65
2023/07/11 11:18:27;;;;;;;6.20;4.90;;;;;;;33.59;35.32;99802.19;4995998;28;20190;-66
2023/07/11 11:21:11;;;;;;;6.40;4.28;;;;;;;33.78;36.11;99809.94;4988513;28;20689;-65
2023/07/11 11:23:54;;;;;;;5.72;4.22;;;;;;;34.02;35.48;99801.75;4987282;28;20187;-66
2023/07/11 11:26:51;;;;;;;5.50;4.25;;;;;;;34.03;35.43;99793.50;4991335;28;20279;-66